sensor_id;sensor_type;location;lat;lon;timestamp;P1;durP1;ratioP1;P2;durP2;ratioP2
76127;SDS011;64873;50.102;14.434;2022-12-29T00:01:39;6.13;;;3.03;;
76127;SDS011;64873;50.102;14.434;2022-12-29T00:04:04;8.95;;;3.25;;
76127;SDS011;64873;50.102;14.434;2022-12-29T00:06:31;8.27;;;3.35;;
76127;SDS011;64873;50.102;14.434;2022-12-29T00:08:56;4.97;;;3.00;;
76127;SDS011;64873;50.102;14.434;2022-12-29T00:11:26;8.45;;;2.90;;
76127;SDS011;64873;50.102;14.434;2022-12-29T00:13:52;7.47;;;2.85;;
76127;SDS011;64873;50.102;14.434;2022-12-29T00:16:37;5.78;;;2.72;;
76127;SDS011;64873;50.102;14.434;2022-12-29T00:19:05;5.97;;;3.08;;
76127;SDS011;64873;50.102;14.434;2022-12-29T00:21:30;7.28;;;3.40;;
76127;SDS011;64873;50.102;14.434;2022-12-29T00:24:16;6.30;;;3.10;;
76127;SDS011;64873;50.102;14.434;2022-12-29T00:26:53;6.55;;;2.97;;
76127;SDS011;64873;50.102;14.434;2022-12-29T00:29:41;8.18;;;3.40;;
76127;SDS011;64873;50.102;14.434;2022-12-29T00:32:25;7.25;;;3.38;;
76127;SDS011;64873;50.102;14.434;2022-12-29T00:35:10;5.72;;;2.83;;
76127;SDS011;64873;50.102;14.434;2022-12-29T00:37:41;7.28;;;3.08;;
76127;SDS011;64873;50.102;14.434;2022-12-29T00:40:29;7.05;;;3.50;;
76127;SDS011;64873;50.102;14.434;2022-12-29T00:43:14;6.60;;;3.17;;
76127;SDS011;64873;50.102;14.434;2022-12-29T00:45:58;9.38;;;3.05;;
76127;SDS011;64873;50.102;14.434;2022-12-29T00:48:24;6.25;;;2.80;;
76127;SDS011;64873;50.102;14.434;2022-12-29T00:51:08;7.90;;;2.97;;
76127;SDS011;64873;50.102;14.434;2022-12-29T00:53:33;9.07;;;3.10;;
76127;SDS011;64873;50.102;14.434;2022-12-29T00:55:59;5.90;;;2.83;;
76127;SDS011;64873;50.102;14.434;2022-12-29T00:58:28;6.38;;;2.47;;
76127;SDS011;64873;50.102;14.434;2022-12-29T01:01:04;7.47;;;2.70;;
76127;SDS011;64873;50.102;14.434;2022-12-29T01:03:32;5.60;;;2.90;;
76127;SDS011;64873;50.102;14.434;2022-12-29T01:06:06;4.53;;;2.42;;
76127;SDS011;64873;50.102;14.434;2022-12-29T01:08:33;7.25;;;2.60;;
76127;SDS011;64873;50.102;14.434;2022-12-29T01:10:59;6.78;;;2.75;;
76127;SDS011;64873;50.102;14.434;2022-12-29T01:13:32;7.65;;;2.90;;
76127;SDS011;64873;50.102;14.434;2022-12-29T01:15:57;5.55;;;2.50;;
76127;SDS011;64873;50.102;14.434;2022-12-29T01:18:24;5.25;;;2.42;;
76127;SDS011;64873;50.102;14.434;2022-12-29T01:20:50;6.05;;;2.30;;
76127;SDS011;64873;50.102;14.434;2022-12-29T01:23:16;4.93;;;2.33;;
76127;SDS011;64873;50.102;14.434;2022-12-29T01:25:42;5.47;;;2.50;;
76127;SDS011;64873;50.102;14.434;2022-12-29T01:28:07;5.55;;;2.30;;
76127;SDS011;64873;50.102;14.434;2022-12-29T01:30:35;4.75;;;1.98;;
76127;SDS011;64873;50.102;14.434;2022-12-29T01:33:01;6.43;;;2.45;;
76127;SDS011;64873;50.102;14.434;2022-12-29T01:35:27;4.43;;;2.40;;
76127;SDS011;64873;50.102;14.434;2022-12-29T01:37:53;6.57;;;2.47;;
76127;SDS011;64873;50.102;14.434;2022-12-29T01:40:19;4.40;;;2.25;;
76127;SDS011;64873;50.102;14.434;2022-12-29T01:42:44;3.78;;;2.05;;
76127;SDS011;64873;50.102;14.434;2022-12-29T01:45:10;6.35;;;2.53;;
76127;SDS011;64873;50.102;14.434;2022-12-29T01:47:44;4.68;;;2.40;;
76127;SDS011;64873;50.102;14.434;2022-12-29T01:50:20;4.75;;;2.10;;
76127;SDS011;64873;50.102;14.434;2022-12-29T01:52:54;5.32;;;2.40;;
76127;SDS011;64873;50.102;14.434;2022-12-29T01:55:24;5.22;;;2.47;;
76127;SDS011;64873;50.102;14.434;2022-12-29T01:57:55;4.45;;;1.98;;
76127;SDS011;64873;50.102;14.434;2022-12-29T02:00:25;4.78;;;2.45;;
76127;SDS011;64873;50.102;14.434;2022-12-29T02:02:53;4.60;;;2.25;;
76127;SDS011;64873;50.102;14.434;2022-12-29T02:05:39;5.05;;;2.30;;
76127;SDS011;64873;50.102;14.434;2022-12-29T02:08:10;5.35;;;1.88;;
76127;SDS011;64873;50.102;14.434;2022-12-29T02:10:36;5.72;;;2.15;;
76127;SDS011;64873;50.102;14.434;2022-12-29T02:13:04;5.32;;;2.63;;
76127;SDS011;64873;50.102;14.434;2022-12-29T02:18:32;5.78;;;2.22;;
76127;SDS011;64873;50.102;14.434;2022-12-29T02:24:22;4.65;;;2.22;;
76127;SDS011;64873;50.102;14.434;2022-12-29T02:32:46;4.43;;;2.08;;
76127;SDS011;64873;50.102;14.434;2022-12-29T02:41:07;3.67;;;1.80;;
76127;SDS011;64873;50.102;14.434;2022-12-29T02:49:52;4.22;;;1.77;;
76127;SDS011;64873;50.102;14.434;2022-12-29T02:52:20;4.07;;;1.80;;
76127;SDS011;64873;50.102;14.434;2022-12-29T02:54:52;5.68;;;2.45;;
76127;SDS011;64873;50.102;14.434;2022-12-29T02:59:47;4.57;;;2.53;;
76127;SDS011;64873;50.102;14.434;2022-12-29T03:07:48;3.83;;;1.98;;
76127;SDS011;64873;50.102;14.434;2022-12-29T03:19:17;6.50;;;2.10;;
76127;SDS011;64873;50.102;14.434;2022-12-29T03:21:51;4.70;;;2.20;;
76127;SDS011;64873;50.102;14.434;2022-12-29T03:24:41;3.40;;;1.85;;
76127;SDS011;64873;50.102;14.434;2022-12-29T03:27:09;7.97;;;2.38;;
76127;SDS011;64873;50.102;14.434;2022-12-29T03:29:45;4.05;;;2.20;;
76127;SDS011;64873;50.102;14.434;2022-12-29T03:32:18;4.28;;;1.83;;
76127;SDS011;64873;50.102;14.434;2022-12-29T03:34:45;5.38;;;2.08;;
76127;SDS011;64873;50.102;14.434;2022-12-29T03:37:14;3.90;;;1.70;;
76127;SDS011;64873;50.102;14.434;2022-12-29T03:39:43;4.18;;;1.85;;
76127;SDS011;64873;50.102;14.434;2022-12-29T03:42:10;3.67;;;1.85;;
76127;SDS011;64873;50.102;14.434;2022-12-29T03:44:40;3.92;;;2.30;;
76127;SDS011;64873;50.102;14.434;2022-12-29T03:47:07;4.70;;;2.03;;
76127;SDS011;64873;50.102;14.434;2022-12-29T03:49:34;4.85;;;2.13;;
76127;SDS011;64873;50.102;14.434;2022-12-29T03:52:00;4.05;;;2.00;;
76127;SDS011;64873;50.102;14.434;2022-12-29T03:54:26;3.58;;;1.80;;
76127;SDS011;64873;50.102;14.434;2022-12-29T03:56:51;4.85;;;2.08;;
76127;SDS011;64873;50.102;14.434;2022-12-29T03:59:17;3.85;;;1.88;;
76127;SDS011;64873;50.102;14.434;2022-12-29T04:01:42;3.83;;;1.73;;
76127;SDS011;64873;50.102;14.434;2022-12-29T04:04:08;3.55;;;1.77;;
76127;SDS011;64873;50.102;14.434;2022-12-29T04:06:33;3.60;;;1.80;;
76127;SDS011;64873;50.102;14.434;2022-12-29T04:08:59;4.10;;;1.60;;
76127;SDS011;64873;50.102;14.434;2022-12-29T04:11:25;5.78;;;1.90;;
76127;SDS011;64873;50.102;14.434;2022-12-29T04:13:50;5.43;;;2.15;;
76127;SDS011;64873;50.102;14.434;2022-12-29T04:16:15;6.75;;;2.25;;
76127;SDS011;64873;50.102;14.434;2022-12-29T04:18:41;3.85;;;1.65;;
76127;SDS011;64873;50.102;14.434;2022-12-29T04:21:06;4.05;;;1.52;;
76127;SDS011;64873;50.102;14.434;2022-12-29T04:23:33;4.75;;;1.63;;
76127;SDS011;64873;50.102;14.434;2022-12-29T04:26:00;2.70;;;1.50;;
76127;SDS011;64873;50.102;14.434;2022-12-29T04:28:26;3.80;;;1.95;;
76127;SDS011;64873;50.102;14.434;2022-12-29T04:30:51;3.08;;;1.70;;
76127;SDS011;64873;50.102;14.434;2022-12-29T04:33:17;3.95;;;1.60;;
76127;SDS011;64873;50.102;14.434;2022-12-29T04:35:43;3.90;;;1.73;;
76127;SDS011;64873;50.102;14.434;2022-12-29T04:38:09;4.15;;;1.55;;
76127;SDS011;64873;50.102;14.434;2022-12-29T04:40:35;3.60;;;1.80;;
76127;SDS011;64873;50.102;14.434;2022-12-29T04:43:00;6.82;;;1.80;;
76127;SDS011;64873;50.102;14.434;2022-12-29T04:45:25;5.32;;;1.67;;
76127;SDS011;64873;50.102;14.434;2022-12-29T04:47:51;5.93;;;1.73;;
76127;SDS011;64873;50.102;14.434;2022-12-29T04:50:16;3.50;;;1.60;;
76127;SDS011;64873;50.102;14.434;2022-12-29T04:52:42;3.38;;;1.50;;
76127;SDS011;64873;50.102;14.434;2022-12-29T04:55:07;2.88;;;1.48;;
76127;SDS011;64873;50.102;14.434;2022-12-29T04:57:33;4.07;;;1.40;;
76127;SDS011;64873;50.102;14.434;2022-12-29T04:59:58;3.88;;;1.80;;
76127;SDS011;64873;50.102;14.434;2022-12-29T05:02:24;4.47;;;1.80;;
76127;SDS011;64873;50.102;14.434;2022-12-29T05:04:49;3.13;;;1.80;;
76127;SDS011;64873;50.102;14.434;2022-12-29T05:07:15;4.70;;;1.38;;
76127;SDS011;64873;50.102;14.434;2022-12-29T05:09:40;2.88;;;1.63;;
76127;SDS011;64873;50.102;14.434;2022-12-29T05:12:05;3.50;;;1.70;;
76127;SDS011;64873;50.102;14.434;2022-12-29T05:14:31;3.83;;;1.23;;
76127;SDS011;64873;50.102;14.434;2022-12-29T05:16:57;4.95;;;2.00;;
76127;SDS011;64873;50.102;14.434;2022-12-29T05:19:22;2.97;;;1.50;;
76127;SDS011;64873;50.102;14.434;2022-12-29T05:21:47;4.90;;;1.95;;
76127;SDS011;64873;50.102;14.434;2022-12-29T05:24:13;2.60;;;1.60;;
76127;SDS011;64873;50.102;14.434;2022-12-29T05:26:38;3.83;;;1.48;;
76127;SDS011;64873;50.102;14.434;2022-12-29T05:29:04;5.18;;;1.58;;
76127;SDS011;64873;50.102;14.434;2022-12-29T05:31:29;3.85;;;1.60;;
76127;SDS011;64873;50.102;14.434;2022-12-29T05:33:55;6.25;;;1.40;;
76127;SDS011;64873;50.102;14.434;2022-12-29T05:36:20;2.72;;;1.50;;
76127;SDS011;64873;50.102;14.434;2022-12-29T05:38:46;2.92;;;1.13;;
76127;SDS011;64873;50.102;14.434;2022-12-29T05:41:11;2.20;;;1.27;;
76127;SDS011;64873;50.102;14.434;2022-12-29T05:43:37;2.72;;;1.30;;
76127;SDS011;64873;50.102;14.434;2022-12-29T05:46:02;2.67;;;1.30;;
76127;SDS011;64873;50.102;14.434;2022-12-29T05:48:28;3.67;;;1.30;;
76127;SDS011;64873;50.102;14.434;2022-12-29T05:50:53;4.22;;;1.85;;
76127;SDS011;64873;50.102;14.434;2022-12-29T05:53:19;2.40;;;1.30;;
76127;SDS011;64873;50.102;14.434;2022-12-29T05:55:46;2.47;;;1.30;;
76127;SDS011;64873;50.102;14.434;2022-12-29T05:58:12;3.03;;;1.23;;
76127;SDS011;64873;50.102;14.434;2022-12-29T06:00:38;4.50;;;1.40;;
76127;SDS011;64873;50.102;14.434;2022-12-29T06:03:03;3.88;;;1.15;;
76127;SDS011;64873;50.102;14.434;2022-12-29T06:05:29;3.47;;;1.55;;
76127;SDS011;64873;50.102;14.434;2022-12-29T06:07:54;2.85;;;1.40;;
76127;SDS011;64873;50.102;14.434;2022-12-29T06:10:20;3.25;;;1.30;;
76127;SDS011;64873;50.102;14.434;2022-12-29T06:12:46;2.67;;;1.77;;
76127;SDS011;64873;50.102;14.434;2022-12-29T06:15:12;2.53;;;1.40;;
76127;SDS011;64873;50.102;14.434;2022-12-29T06:17:38;2.80;;;1.25;;
76127;SDS011;64873;50.102;14.434;2022-12-29T06:20:04;3.50;;;1.48;;
76127;SDS011;64873;50.102;14.434;2022-12-29T06:22:30;3.33;;;1.70;;
76127;SDS011;64873;50.102;14.434;2022-12-29T06:24:55;6.25;;;2.38;;
76127;SDS011;64873;50.102;14.434;2022-12-29T06:27:21;4.90;;;1.48;;
76127;SDS011;64873;50.102;14.434;2022-12-29T06:29:46;4.22;;;1.48;;
76127;SDS011;64873;50.102;14.434;2022-12-29T06:32:11;3.22;;;1.40;;
76127;SDS011;64873;50.102;14.434;2022-12-29T06:34:37;3.25;;;1.52;;
76127;SDS011;64873;50.102;14.434;2022-12-29T06:37:02;2.78;;;1.65;;
76127;SDS011;64873;50.102;14.434;2022-12-29T06:39:28;3.05;;;1.50;;
76127;SDS011;64873;50.102;14.434;2022-12-29T06:41:54;5.20;;;1.50;;
76127;SDS011;64873;50.102;14.434;2022-12-29T06:44:20;6.47;;;1.40;;
76127;SDS011;64873;50.102;14.434;2022-12-29T06:46:46;4.05;;;1.52;;
76127;SDS011;64873;50.102;14.434;2022-12-29T06:49:12;3.25;;;1.15;;
76127;SDS011;64873;50.102;14.434;2022-12-29T06:51:37;6.22;;;1.55;;
76127;SDS011;64873;50.102;14.434;2022-12-29T06:54:03;2.08;;;1.08;;
76127;SDS011;64873;50.102;14.434;2022-12-29T06:56:28;2.40;;;1.23;;
76127;SDS011;64873;50.102;14.434;2022-12-29T06:58:54;5.88;;;1.98;;
76127;SDS011;64873;50.102;14.434;2022-12-29T07:01:19;2.90;;;1.15;;
76127;SDS011;64873;50.102;14.434;2022-12-29T07:03:44;3.50;;;1.77;;
76127;SDS011;64873;50.102;14.434;2022-12-29T07:06:10;2.95;;;1.13;;
76127;SDS011;64873;50.102;14.434;2022-12-29T07:08:35;4.97;;;1.67;;
76127;SDS011;64873;50.102;14.434;2022-12-29T07:11:01;2.83;;;1.50;;
76127;SDS011;64873;50.102;14.434;2022-12-29T07:13:26;6.25;;;1.60;;
76127;SDS011;64873;50.102;14.434;2022-12-29T07:15:52;3.33;;;1.65;;
76127;SDS011;64873;50.102;14.434;2022-12-29T07:18:17;5.07;;;1.35;;
76127;SDS011;64873;50.102;14.434;2022-12-29T07:20:42;5.68;;;1.70;;
76127;SDS011;64873;50.102;14.434;2022-12-29T07:23:08;4.70;;;1.60;;
76127;SDS011;64873;50.102;14.434;2022-12-29T07:25:33;3.60;;;1.23;;
76127;SDS011;64873;50.102;14.434;2022-12-29T07:28:00;2.90;;;1.10;;
76127;SDS011;64873;50.102;14.434;2022-12-29T07:30:26;5.55;;;1.52;;
76127;SDS011;64873;50.102;14.434;2022-12-29T07:32:52;3.83;;;1.48;;
76127;SDS011;64873;50.102;14.434;2022-12-29T07:35:17;4.45;;;1.40;;
76127;SDS011;64873;50.102;14.434;2022-12-29T07:37:43;5.80;;;1.80;;
76127;SDS011;64873;50.102;14.434;2022-12-29T07:40:09;4.22;;;1.42;;
76127;SDS011;64873;50.102;14.434;2022-12-29T07:42:35;5.03;;;1.40;;
76127;SDS011;64873;50.102;14.434;2022-12-29T07:45:00;8.50;;;1.63;;
76127;SDS011;64873;50.102;14.434;2022-12-29T07:47:26;3.75;;;1.70;;
76127;SDS011;64873;50.102;14.434;2022-12-29T07:49:52;7.20;;;1.40;;
76127;SDS011;64873;50.102;14.434;2022-12-29T07:52:17;5.97;;;1.50;;
76127;SDS011;64873;50.102;14.434;2022-12-29T07:54:43;3.25;;;1.60;;
76127;SDS011;64873;50.102;14.434;2022-12-29T07:57:08;5.13;;;1.88;;
76127;SDS011;64873;50.102;14.434;2022-12-29T07:59:34;4.72;;;1.60;;
76127;SDS011;64873;50.102;14.434;2022-12-29T08:01:59;5.22;;;1.75;;
76127;SDS011;64873;50.102;14.434;2022-12-29T08:04:25;3.95;;;1.50;;
76127;SDS011;64873;50.102;14.434;2022-12-29T08:06:50;4.00;;;1.73;;
76127;SDS011;64873;50.102;14.434;2022-12-29T08:09:16;5.32;;;1.63;;
76127;SDS011;64873;50.102;14.434;2022-12-29T08:11:41;7.35;;;1.70;;
76127;SDS011;64873;50.102;14.434;2022-12-29T08:14:08;5.25;;;1.88;;
76127;SDS011;64873;50.102;14.434;2022-12-29T08:16:33;3.88;;;1.70;;
76127;SDS011;64873;50.102;14.434;2022-12-29T08:18:59;5.07;;;1.88;;
76127;SDS011;64873;50.102;14.434;2022-12-29T08:21:25;3.60;;;1.65;;
76127;SDS011;64873;50.102;14.434;2022-12-29T08:23:52;3.08;;;1.50;;
76127;SDS011;64873;50.102;14.434;2022-12-29T08:26:17;4.88;;;1.70;;
76127;SDS011;64873;50.102;14.434;2022-12-29T08:28:43;5.50;;;1.70;;
76127;SDS011;64873;50.102;14.434;2022-12-29T08:31:08;3.60;;;1.63;;
76127;SDS011;64873;50.102;14.434;2022-12-29T08:33:34;4.35;;;1.77;;
76127;SDS011;64873;50.102;14.434;2022-12-29T08:36:00;5.57;;;1.95;;
76127;SDS011;64873;50.102;14.434;2022-12-29T08:38:28;6.30;;;2.30;;
76127;SDS011;64873;50.102;14.434;2022-12-29T08:40:55;6.72;;;2.03;;
76127;SDS011;64873;50.102;14.434;2022-12-29T08:43:21;8.00;;;2.22;;
76127;SDS011;64873;50.102;14.434;2022-12-29T08:45:46;6.78;;;2.28;;
76127;SDS011;64873;50.102;14.434;2022-12-29T08:48:12;6.63;;;2.15;;
76127;SDS011;64873;50.102;14.434;2022-12-29T08:50:37;4.28;;;2.05;;
76127;SDS011;64873;50.102;14.434;2022-12-29T08:53:02;5.82;;;2.00;;
76127;SDS011;64873;50.102;14.434;2022-12-29T08:55:28;5.03;;;2.17;;
76127;SDS011;64873;50.102;14.434;2022-12-29T08:57:53;5.70;;;2.13;;
76127;SDS011;64873;50.102;14.434;2022-12-29T09:00:19;6.45;;;2.00;;
76127;SDS011;64873;50.102;14.434;2022-12-29T09:02:45;8.25;;;2.30;;
76127;SDS011;64873;50.102;14.434;2022-12-29T09:05:11;8.48;;;3.20;;
76127;SDS011;64873;50.102;14.434;2022-12-29T09:07:36;8.55;;;2.90;;
76127;SDS011;64873;50.102;14.434;2022-12-29T09:10:02;4.88;;;2.13;;
76127;SDS011;64873;50.102;14.434;2022-12-29T09:12:28;5.72;;;2.65;;
76127;SDS011;64873;50.102;14.434;2022-12-29T09:14:53;5.78;;;2.10;;
76127;SDS011;64873;50.102;14.434;2022-12-29T09:17:18;9.30;;;2.47;;
76127;SDS011;64873;50.102;14.434;2022-12-29T09:20:03;9.93;;;2.72;;
76127;SDS011;64873;50.102;14.434;2022-12-29T09:22:29;8.15;;;2.50;;
76127;SDS011;64873;50.102;14.434;2022-12-29T09:24:54;5.75;;;2.03;;
76127;SDS011;64873;50.102;14.434;2022-12-29T09:27:20;5.78;;;2.00;;
76127;SDS011;64873;50.102;14.434;2022-12-29T09:29:45;5.60;;;2.55;;
76127;SDS011;64873;50.102;14.434;2022-12-29T09:32:11;7.90;;;2.40;;
76127;SDS011;64873;50.102;14.434;2022-12-29T09:34:36;8.93;;;2.67;;
76127;SDS011;64873;50.102;14.434;2022-12-29T09:37:01;7.72;;;2.38;;
76127;SDS011;64873;50.102;14.434;2022-12-29T09:39:27;8.23;;;2.60;;
76127;SDS011;64873;50.102;14.434;2022-12-29T09:41:58;4.88;;;2.28;;
76127;SDS011;64873;50.102;14.434;2022-12-29T09:47:21;7.25;;;2.55;;
76127;SDS011;64873;50.102;14.434;2022-12-29T09:49:49;9.07;;;2.80;;
76127;SDS011;64873;50.102;14.434;2022-12-29T09:52:21;7.80;;;2.97;;
76127;SDS011;64873;50.102;14.434;2022-12-29T10:00:33;7.57;;;3.00;;
76127;SDS011;64873;50.102;14.434;2022-12-29T10:03:06;6.13;;;3.25;;
76127;SDS011;64873;50.102;14.434;2022-12-29T10:06:03;8.88;;;3.22;;
76127;SDS011;64873;50.102;14.434;2022-12-29T10:08:44;5.95;;;2.90;;
76127;SDS011;64873;50.102;14.434;2022-12-29T10:24:48;5.00;;;2.70;;
76127;SDS011;64873;50.102;14.434;2022-12-29T10:27:16;10.35;;;2.88;;
76127;SDS011;64873;50.102;14.434;2022-12-29T10:30:16;10.60;;;3.35;;
76127;SDS011;64873;50.102;14.434;2022-12-29T10:35:31;5.32;;;2.72;;
76127;SDS011;64873;50.102;14.434;2022-12-29T10:40:53;5.28;;;2.83;;
76127;SDS011;64873;50.102;14.434;2022-12-29T10:44:02;6.88;;;2.85;;
76127;SDS011;64873;50.102;14.434;2022-12-29T10:46:26;6.28;;;2.53;;
76127;SDS011;64873;50.102;14.434;2022-12-29T10:48:54;7.60;;;2.00;;
76127;SDS011;64873;50.102;14.434;2022-12-29T10:51:21;7.32;;;2.08;;
76127;SDS011;64873;50.102;14.434;2022-12-29T10:53:52;3.38;;;1.52;;
76127;SDS011;64873;50.102;14.434;2022-12-29T10:56:54;3.28;;;1.40;;
76127;SDS011;64873;50.102;14.434;2022-12-29T10:59:30;4.88;;;2.13;;
76127;SDS011;64873;50.102;14.434;2022-12-29T11:04:28;3.63;;;1.20;;
76127;SDS011;64873;50.102;14.434;2022-12-29T11:07:17;4.45;;;1.48;;
76127;SDS011;64873;50.102;14.434;2022-12-29T11:09:44;2.10;;;1.17;;
76127;SDS011;64873;50.102;14.434;2022-12-29T11:12:27;5.15;;;2.03;;
76127;SDS011;64873;50.102;14.434;2022-12-29T11:17:51;3.67;;;1.63;;
76127;SDS011;64873;50.102;14.434;2022-12-29T11:20:32;6.97;;;2.30;;
76127;SDS011;64873;50.102;14.434;2022-12-29T11:26:08;5.18;;;1.95;;
76127;SDS011;64873;50.102;14.434;2022-12-29T11:28:38;12.82;;;1.80;;
76127;SDS011;64873;50.102;14.434;2022-12-29T11:31:05;3.25;;;1.52;;
76127;SDS011;64873;50.102;14.434;2022-12-29T11:33:34;2.00;;;1.10;;
76127;SDS011;64873;50.102;14.434;2022-12-29T11:38:37;3.15;;;1.38;;
76127;SDS011;64873;50.102;14.434;2022-12-29T11:41:05;3.20;;;1.40;;
76127;SDS011;64873;50.102;14.434;2022-12-29T11:43:37;5.35;;;1.27;;
76127;SDS011;64873;50.102;14.434;2022-12-29T11:46:06;3.78;;;1.20;;
76127;SDS011;64873;50.102;14.434;2022-12-29T11:48:43;4.35;;;1.08;;
76127;SDS011;64873;50.102;14.434;2022-12-29T11:51:09;3.17;;;1.30;;
76127;SDS011;64873;50.102;14.434;2022-12-29T11:53:42;5.65;;;1.27;;
76127;SDS011;64873;50.102;14.434;2022-12-29T11:56:19;3.95;;;1.40;;
76127;SDS011;64873;50.102;14.434;2022-12-29T11:58:47;2.10;;;1.10;;
76127;SDS011;64873;50.102;14.434;2022-12-29T12:01:17;4.47;;;1.25;;
76127;SDS011;64873;50.102;14.434;2022-12-29T12:04:05;5.30;;;1.33;;
76127;SDS011;64873;50.102;14.434;2022-12-29T12:06:39;4.80;;;1.60;;
76127;SDS011;64873;50.102;14.434;2022-12-29T12:09:16;8.15;;;2.20;;
76127;SDS011;64873;50.102;14.434;2022-12-29T12:11:47;6.13;;;1.90;;
76127;SDS011;64873;50.102;14.434;2022-12-29T12:14:23;3.58;;;1.58;;
76127;SDS011;64873;50.102;14.434;2022-12-29T12:16:58;5.50;;;1.85;;
76127;SDS011;64873;50.102;14.434;2022-12-29T12:19:46;5.43;;;1.85;;
76127;SDS011;64873;50.102;14.434;2022-12-29T12:22:25;6.00;;;1.80;;
76127;SDS011;64873;50.102;14.434;2022-12-29T12:25:10;3.58;;;1.40;;
76127;SDS011;64873;50.102;14.434;2022-12-29T12:27:39;3.03;;;1.40;;
76127;SDS011;64873;50.102;14.434;2022-12-29T12:30:22;3.20;;;1.60;;
76127;SDS011;64873;50.102;14.434;2022-12-29T12:43:39;5.60;;;2.50;;
76127;SDS011;64873;50.102;14.434;2022-12-29T12:46:23;6.13;;;3.15;;
76127;SDS011;64873;50.102;14.434;2022-12-29T13:00:01;6.45;;;2.88;;
76127;SDS011;64873;50.102;14.434;2022-12-29T13:11:01;7.47;;;3.35;;
76127;SDS011;64873;50.102;14.434;2022-12-29T13:13:42;6.47;;;2.53;;
76127;SDS011;64873;50.102;14.434;2022-12-29T13:19:13;9.63;;;2.58;;
76127;SDS011;64873;50.102;14.434;2022-12-29T13:29:46;5.43;;;1.90;;
76127;SDS011;64873;50.102;14.434;2022-12-29T13:38:02;4.50;;;1.92;;
76127;SDS011;64873;50.102;14.434;2022-12-29T13:40:41;4.55;;;2.13;;
76127;SDS011;64873;50.102;14.434;2022-12-29T13:43:11;8.00;;;1.80;;
76127;SDS011;64873;50.102;14.434;2022-12-29T13:45:39;5.15;;;1.50;;
76127;SDS011;64873;50.102;14.434;2022-12-29T13:48:15;4.32;;;1.70;;
76127;SDS011;64873;50.102;14.434;2022-12-29T13:50:52;5.95;;;1.65;;
76127;SDS011;64873;50.102;14.434;2022-12-29T13:53:34;5.07;;;1.42;;
76127;SDS011;64873;50.102;14.434;2022-12-29T13:56:21;7.13;;;1.80;;
76127;SDS011;64873;50.102;14.434;2022-12-29T13:58:54;5.63;;;1.60;;
76127;SDS011;64873;50.102;14.434;2022-12-29T14:04:01;4.65;;;1.60;;
76127;SDS011;64873;50.102;14.434;2022-12-29T14:06:34;3.75;;;1.83;;
76127;SDS011;64873;50.102;14.434;2022-12-29T14:09:05;4.03;;;1.30;;
76127;SDS011;64873;50.102;14.434;2022-12-29T14:11:50;2.40;;;1.17;;
76127;SDS011;64873;50.102;14.434;2022-12-29T14:14:20;3.42;;;1.45;;
76127;SDS011;64873;50.102;14.434;2022-12-29T14:16:46;5.47;;;1.70;;
76127;SDS011;64873;50.102;14.434;2022-12-29T14:19:14;7.50;;;1.30;;
76127;SDS011;64873;50.102;14.434;2022-12-29T14:21:52;4.50;;;1.50;;
76127;SDS011;64873;50.102;14.434;2022-12-29T14:26:51;5.10;;;1.70;;
76127;SDS011;64873;50.102;14.434;2022-12-29T14:31:48;4.07;;;1.77;;
76127;SDS011;64873;50.102;14.434;2022-12-29T14:34:15;3.13;;;1.50;;
76127;SDS011;64873;50.102;14.434;2022-12-29T14:39:37;4.47;;;1.50;;
76127;SDS011;64873;50.102;14.434;2022-12-29T14:44:47;3.58;;;1.50;;
76127;SDS011;64873;50.102;14.434;2022-12-29T14:47:18;4.22;;;1.38;;
76127;SDS011;64873;50.102;14.434;2022-12-29T14:49:47;5.95;;;1.67;;
76127;SDS011;64873;50.102;14.434;2022-12-29T14:54:48;3.53;;;1.60;;
76127;SDS011;64873;50.102;14.434;2022-12-29T14:57:27;4.60;;;1.50;;
76127;SDS011;64873;50.102;14.434;2022-12-29T15:00:08;3.90;;;1.50;;
76127;SDS011;64873;50.102;14.434;2022-12-29T15:02:42;6.53;;;1.27;;
76127;SDS011;64873;50.102;14.434;2022-12-29T15:08:09;4.13;;;1.50;;
76127;SDS011;64873;50.102;14.434;2022-12-29T15:10:42;4.57;;;1.80;;
76127;SDS011;64873;50.102;14.434;2022-12-29T15:13:17;4.18;;;1.95;;
76127;SDS011;64873;50.102;14.434;2022-12-29T15:15:47;6.80;;;1.70;;
76127;SDS011;64873;50.102;14.434;2022-12-29T15:18:21;3.33;;;1.58;;
76127;SDS011;64873;50.102;14.434;2022-12-29T15:20:53;4.47;;;1.40;;
76127;SDS011;64873;50.102;14.434;2022-12-29T15:23:24;4.65;;;1.48;;
76127;SDS011;64873;50.102;14.434;2022-12-29T15:26:03;4.88;;;1.90;;
76127;SDS011;64873;50.102;14.434;2022-12-29T15:28:41;2.88;;;1.50;;
76127;SDS011;64873;50.102;14.434;2022-12-29T15:33:49;7.78;;;2.03;;
76127;SDS011;64873;50.102;14.434;2022-12-29T15:36:23;2.83;;;1.52;;
76127;SDS011;64873;50.102;14.434;2022-12-29T15:38:51;6.40;;;2.00;;
76127;SDS011;64873;50.102;14.434;2022-12-29T15:46:42;4.50;;;2.10;;
76127;SDS011;64873;50.102;14.434;2022-12-29T15:49:07;6.10;;;1.70;;
76127;SDS011;64873;50.102;14.434;2022-12-29T15:51:37;4.93;;;2.58;;
76127;SDS011;64873;50.102;14.434;2022-12-29T15:54:04;5.45;;;1.95;;
76127;SDS011;64873;50.102;14.434;2022-12-29T15:56:31;4.20;;;2.00;;
76127;SDS011;64873;50.102;14.434;2022-12-29T15:58:58;7.70;;;1.95;;
76127;SDS011;64873;50.102;14.434;2022-12-29T16:01:30;8.75;;;2.10;;
76127;SDS011;64873;50.102;14.434;2022-12-29T16:03:58;14.10;;;2.03;;
76127;SDS011;64873;50.102;14.434;2022-12-29T16:06:26;3.65;;;1.67;;
76127;SDS011;64873;50.102;14.434;2022-12-29T16:08:56;5.85;;;2.20;;
76127;SDS011;64873;50.102;14.434;2022-12-29T16:11:29;7.70;;;2.28;;
76127;SDS011;64873;50.102;14.434;2022-12-29T16:13:59;3.88;;;1.95;;
76127;SDS011;64873;50.102;14.434;2022-12-29T16:16:30;5.82;;;2.28;;
76127;SDS011;64873;50.102;14.434;2022-12-29T16:18:59;7.68;;;2.17;;
76127;SDS011;64873;50.102;14.434;2022-12-29T16:21:32;5.50;;;2.00;;
76127;SDS011;64873;50.102;14.434;2022-12-29T16:24:01;5.38;;;1.88;;
76127;SDS011;64873;50.102;14.434;2022-12-29T16:26:32;6.68;;;2.30;;
76127;SDS011;64873;50.102;14.434;2022-12-29T16:28:58;10.68;;;3.08;;
76127;SDS011;64873;50.102;14.434;2022-12-29T16:34:20;7.97;;;3.13;;
76127;SDS011;64873;50.102;14.434;2022-12-29T16:36:55;5.70;;;2.58;;
76127;SDS011;64873;50.102;14.434;2022-12-29T16:41:55;5.10;;;2.30;;
76127;SDS011;64873;50.102;14.434;2022-12-29T16:44:29;5.75;;;2.53;;
76127;SDS011;64873;50.102;14.434;2022-12-29T16:46:56;5.47;;;2.53;;
76127;SDS011;64873;50.102;14.434;2022-12-29T16:49:35;5.05;;;2.20;;
76127;SDS011;64873;50.102;14.434;2022-12-29T16:52:11;6.32;;;2.72;;
76127;SDS011;64873;50.102;14.434;2022-12-29T16:54:38;8.18;;;2.63;;
76127;SDS011;64873;50.102;14.434;2022-12-29T16:57:06;4.88;;;2.60;;
76127;SDS011;64873;50.102;14.434;2022-12-29T16:59:36;7.65;;;2.60;;
76127;SDS011;64873;50.102;14.434;2022-12-29T17:04:38;5.18;;;2.40;;
76127;SDS011;64873;50.102;14.434;2022-12-29T17:07:04;6.50;;;2.55;;
76127;SDS011;64873;50.102;14.434;2022-12-29T17:09:40;4.28;;;2.47;;
76127;SDS011;64873;50.102;14.434;2022-12-29T17:12:06;7.60;;;2.65;;
76127;SDS011;64873;50.102;14.434;2022-12-29T17:16:58;4.53;;;2.13;;
76127;SDS011;64873;50.102;14.434;2022-12-29T17:19:28;6.55;;;2.00;;
76127;SDS011;64873;50.102;14.434;2022-12-29T17:21:55;4.60;;;2.05;;
76127;SDS011;64873;50.102;14.434;2022-12-29T17:24:21;4.93;;;2.30;;
76127;SDS011;64873;50.102;14.434;2022-12-29T17:26:52;4.97;;;2.30;;
76127;SDS011;64873;50.102;14.434;2022-12-29T17:32:05;5.55;;;2.25;;
76127;SDS011;64873;50.102;14.434;2022-12-29T17:34:35;6.90;;;2.20;;